sensor_id;sensor_type;location;lat;lon;timestamp;pressure;altitude;pressure_sealevel;temperature;humidity
18569;BME280;14780;48.316;-1.050;2023-03-20T00:00:58;99587.63;;;23.77;38.59
18569;BME280;14780;48.316;-1.050;2023-03-20T00:03:44;99582.16;;;23.77;38.56
18569;BME280;14780;48.316;-1.050;2023-03-20T00:06:29;99587.63;;;23.77;38.65
18569;BME280;14780;48.316;-1.050;2023-03-20T00:09:14;99593.09;;;23.77;38.65
18569;BME280;14780;48.316;-1.050;2023-03-20T00:11:59;99591.44;;;23.76;38.70
18569;BME280;14780;48.316;-1.050;2023-03-20T00:14:43;99597.97;;;23.75;38.58
18569;BME280;14780;48.316;-1.050;2023-03-20T00:17:28;99601.81;;;23.74;38.54
18569;BME280;14780;48.316;-1.050;2023-03-20T00:20:15;99590.31;;;23.72;38.64
18569;BME280;14780;48.316;-1.050;2023-03-20T00:23:00;99599.59;;;23.71;38.63
18569;BME280;14780;48.316;-1.050;2023-03-20T00:25:46;99605.88;;;23.72;38.68
18569;BME280;14780;48.316;-1.050;2023-03-20T00:28:40;99603.41;;;23.70;38.64
18569;BME280;14780;48.316;-1.050;2023-03-20T00:31:33;99607.22;;;23.69;38.65
18569;BME280;14780;48.316;-1.050;2023-03-20T00:34:21;99609.38;;;23.67;38.61
18569;BME280;14780;48.316;-1.050;2023-03-20T00:37:08;99600.38;;;23.67;38.72
18569;BME280;14780;48.316;-1.050;2023-03-20T00:39:55;99605.25;;;23.65;38.70
18569;BME280;14780;48.316;-1.050;2023-03-20T00:42:40;99600.88;;;23.64;38.57
18569;BME280;14780;48.316;-1.050;2023-03-20T00:45:27;99602.81;;;23.63;38.62
18569;BME280;14780;48.316;-1.050;2023-03-20T00:48:15;99600.31;;;23.62;38.53
18569;BME280;14780;48.316;-1.050;2023-03-20T00:51:00;99594.03;;;23.61;38.57
18569;BME280;14780;48.316;-1.050;2023-03-20T00:53:45;99583.63;;;23.58;38.61
18569;BME280;14780;48.316;-1.050;2023-03-20T00:56:35;99584.44;;;23.59;38.74
18569;BME280;14780;48.316;-1.050;2023-03-20T00:59:26;99583.88;;;23.57;38.75
18569;BME280;14780;48.316;-1.050;2023-03-20T01:02:12;99581.38;;;23.55;38.63
18569;BME280;14780;48.316;-1.050;2023-03-20T01:04:57;99585.78;;;23.56;38.55
18569;BME280;14780;48.316;-1.050;2023-03-20T01:07:42;99589.03;;;23.53;38.63
18569;BME280;14780;48.316;-1.050;2023-03-20T01:10:31;99584.66;;;23.52;38.70
18569;BME280;14780;48.316;-1.050;2023-03-20T01:13:24;99592.03;;;23.52;38.60
18569;BME280;14780;48.316;-1.050;2023-03-20T01:16:20;99585.75;;;23.51;38.64
18569;BME280;14780;48.316;-1.050;2023-03-20T01:19:05;99585.19;;;23.49;38.48
18569;BME280;14780;48.316;-1.050;2023-03-20T01:21:50;99589.00;;;23.48;38.46
18569;BME280;14780;48.316;-1.050;2023-03-20T01:24:38;99573.09;;;23.45;38.52
18569;BME280;14780;48.316;-1.050;2023-03-20T01:27:23;99580.22;;;23.46;38.38
18569;BME280;14780;48.316;-1.050;2023-03-20T01:30:26;99582.94;;;23.46;38.60
18569;BME280;14780;48.316;-1.050;2023-03-20T01:33:16;99569.81;;;23.43;38.54
18569;BME280;14780;48.316;-1.050;2023-03-20T01:36:02;99566.53;;;23.42;38.42
18569;BME280;14780;48.316;-1.050;2023-03-20T01:38:55;99557.75;;;23.39;38.47
18569;BME280;14780;48.316;-1.050;2023-03-20T01:41:41;99560.75;;;23.38;38.63
18569;BME280;14780;48.316;-1.050;2023-03-20T01:44:29;99563.75;;;23.37;38.65
18569;BME280;14780;48.316;-1.050;2023-03-20T01:47:18;99559.59;;;23.34;38.51
18569;BME280;14780;48.316;-1.050;2023-03-20T01:53:24;99558.28;;;23.37;38.59
18569;BME280;14780;48.316;-1.050;2023-03-20T01:56:12;99557.13;;;23.33;38.52
18569;BME280;14780;48.316;-1.050;2023-03-20T01:59:04;99559.84;;;23.33;38.59
18569;BME280;14780;48.316;-1.050;2023-03-20T02:01:53;99556.56;;;23.31;38.53
18569;BME280;14780;48.316;-1.050;2023-03-20T02:04:41;99556.31;;;23.32;38.52
18569;BME280;14780;48.316;-1.050;2023-03-20T02:07:26;99554.69;;;23.31;38.49
18569;BME280;14780;48.316;-1.050;2023-03-20T02:10:14;99546.72;;;23.30;38.45
18569;BME280;14780;48.316;-1.050;2023-03-20T02:13:01;99550.56;;;23.29;38.45
18569;BME280;14780;48.316;-1.050;2023-03-20T02:16:13;99547.84;;;23.33;38.42
18569;BME280;14780;48.316;-1.050;2023-03-20T02:18:59;99544.00;;;23.30;38.46
18569;BME280;14780;48.316;-1.050;2023-03-20T02:24:44;99530.59;;;23.28;38.53
18569;BME280;14780;48.316;-1.050;2023-03-20T02:40:36;99535.81;;;23.30;38.52
18569;BME280;14780;48.316;-1.050;2023-03-20T02:46:45;99529.78;;;23.28;38.47
18569;BME280;14780;48.316;-1.050;2023-03-20T02:55:56;99510.09;;;23.26;38.46
18569;BME280;14780;48.316;-1.050;2023-03-20T02:58:41;99509.53;;;23.24;38.60
18569;BME280;14780;48.316;-1.050;2023-03-20T03:01:42;99503.00;;;23.25;38.38
18569;BME280;14780;48.316;-1.050;2023-03-20T03:04:37;99511.44;;;23.23;38.32
18569;BME280;14780;48.316;-1.050;2023-03-20T03:07:27;99516.34;;;23.21;38.37
18569;BME280;14780;48.316;-1.050;2023-03-20T03:10:22;99517.16;;;23.22;38.43
18569;BME280;14780;48.316;-1.050;2023-03-20T03:13:13;99506.75;;;23.19;38.41
18569;BME280;14780;48.316;-1.050;2023-03-20T03:16:11;99505.66;;;23.20;38.35
18569;BME280;14780;48.316;-1.050;2023-03-20T03:19:08;99495.81;;;23.19;38.20
18569;BME280;14780;48.316;-1.050;2023-03-20T03:21:56;99492.00;;;23.20;38.33
18569;BME280;14780;48.316;-1.050;2023-03-20T03:24:46;99495.81;;;23.19;38.35
18569;BME280;14780;48.316;-1.050;2023-03-20T03:27:39;99499.63;;;23.18;38.34
18569;BME280;14780;48.316;-1.050;2023-03-20T03:30:27;99506.19;;;23.17;38.33
18569;BME280;14780;48.316;-1.050;2023-03-20T03:33:20;99496.34;;;23.16;38.24
18569;BME280;14780;48.316;-1.050;2023-03-20T03:36:16;99496.34;;;23.16;38.34
18569;BME280;14780;48.316;-1.050;2023-03-20T03:43:00;99511.06;;;23.15;38.35
18569;BME280;14780;48.316;-1.050;2023-03-20T03:46:47;99509.41;;;23.14;38.29
18569;BME280;14780;48.316;-1.050;2023-03-20T03:49:36;99506.09;;;23.12;38.14
18569;BME280;14780;48.316;-1.050;2023-03-20T03:52:24;99505.78;;;23.08;38.24
18569;BME280;14780;48.316;-1.050;2023-03-20T03:55:14;99506.06;;;23.07;38.25
18569;BME280;14780;48.316;-1.050;2023-03-20T03:58:13;99497.88;;;23.07;38.15
18569;BME280;14780;48.316;-1.050;2023-03-20T04:01:01;99495.38;;;23.05;38.15
18569;BME280;14780;48.316;-1.050;2023-03-20T04:03:53;99496.22;;;23.06;38.16
18569;BME280;14780;48.316;-1.050;2023-03-20T04:06:40;99485.56;;;23.04;38.23
18569;BME280;14780;48.316;-1.050;2023-03-20T04:09:25;99484.72;;;23.04;38.28
18569;BME280;14780;48.316;-1.050;2023-03-20T04:12:33;99488.59;;;23.08;38.18
18569;BME280;14780;48.316;-1.050;2023-03-20T04:15:18;99492.91;;;23.04;38.15
18569;BME280;14780;48.316;-1.050;2023-03-20T04:18:05;99491.25;;;23.03;38.17
18569;BME280;14780;48.316;-1.050;2023-03-20T04:20:50;99495.09;;;23.02;38.15
18569;BME280;14780;48.316;-1.050;2023-03-20T04:23:36;99494.25;;;23.01;38.11
18569;BME280;14780;48.316;-1.050;2023-03-20T04:26:21;99495.59;;;22.99;38.05
18569;BME280;14780;48.316;-1.050;2023-03-20T04:29:06;99494.53;;;23.00;38.12
18569;BME280;14780;48.316;-1.050;2023-03-20T04:31:51;99497.25;;;23.00;38.15
18569;BME280;14780;48.316;-1.050;2023-03-20T04:34:36;99488.22;;;22.99;38.00
18569;BME280;14780;48.316;-1.050;2023-03-20T04:37:20;99483.00;;;22.98;38.11
18569;BME280;14780;48.316;-1.050;2023-03-20T04:40:05;99481.38;;;22.97;38.14
18569;BME280;14780;48.316;-1.050;2023-03-20T04:42:51;99471.28;;;22.97;38.02
18569;BME280;14780;48.316;-1.050;2023-03-20T04:45:36;99477.56;;;22.98;37.98
18569;BME280;14780;48.316;-1.050;2023-03-20T04:48:22;99472.38;;;22.96;38.04
18569;BME280;14780;48.316;-1.050;2023-03-20T04:51:07;99473.19;;;22.97;38.08
18569;BME280;14780;48.316;-1.050;2023-03-20T04:53:51;99472.09;;;22.98;38.10
18569;BME280;14780;48.316;-1.050;2023-03-20T04:56:36;99471.28;;;22.97;38.03
18569;BME280;14780;48.316;-1.050;2023-03-20T04:59:21;99472.09;;;22.98;38.04
18569;BME280;14780;48.316;-1.050;2023-03-20T05:02:05;99470.47;;;22.97;38.04
18569;BME280;14780;48.316;-1.050;2023-03-20T05:04:50;99475.91;;;22.97;37.97
18569;BME280;14780;48.316;-1.050;2023-03-20T05:07:35;99468.81;;;22.96;38.04
18569;BME280;14780;48.316;-1.050;2023-03-20T05:10:20;99472.38;;;22.96;37.90
18569;BME280;14780;48.316;-1.050;2023-03-20T05:13:05;99475.91;;;22.97;37.99
18569;BME280;14780;48.316;-1.050;2023-03-20T05:15:49;99463.34;;;22.96;37.94
18569;BME280;14780;48.316;-1.050;2023-03-20T05:18:35;99459.81;;;22.95;38.03
18569;BME280;14780;48.316;-1.050;2023-03-20T05:21:20;99458.75;;;22.96;37.88
18569;BME280;14780;48.316;-1.050;2023-03-20T05:24:04;99449.97;;;22.94;37.97
18569;BME280;14780;48.316;-1.050;2023-03-20T05:26:50;99457.09;;;22.95;37.91
18569;BME280;14780;48.316;-1.050;2023-03-20T05:29:35;99449.16;;;22.94;37.88
18569;BME280;14780;48.316;-1.050;2023-03-20T05:32:20;99456.25;;;22.95;37.80
18569;BME280;14780;48.316;-1.050;2023-03-20T05:35:05;99458.44;;;22.93;37.89
18569;BME280;14780;48.316;-1.050;2023-03-20T05:37:50;99449.16;;;22.94;37.78
18569;BME280;14780;48.316;-1.050;2023-03-20T05:40:35;99447.50;;;22.93;37.85
18569;BME280;14780;48.316;-1.050;2023-03-20T05:43:20;99457.34;;;22.94;37.86
18569;BME280;14780;48.316;-1.050;2023-03-20T05:46:04;99452.13;;;22.92;37.78
18569;BME280;14780;48.316;-1.050;2023-03-20T05:48:49;99455.94;;;22.91;37.85
18569;BME280;14780;48.316;-1.050;2023-03-20T05:51:34;99462.50;;;22.90;37.77
18569;BME280;14780;48.316;-1.050;2023-03-20T05:54:19;99465.22;;;22.90;37.74
18569;BME280;14780;48.316;-1.050;2023-03-20T05:57:04;99467.09;;;22.90;37.88
18569;BME280;14780;48.316;-1.050;2023-03-20T05:59:48;99462.72;;;22.89;37.86
18569;BME280;14780;48.316;-1.050;2023-03-20T06:02:33;99477.22;;;22.89;37.83
18569;BME280;14780;48.316;-1.050;2023-03-20T06:05:18;99470.91;;;22.89;37.93
18569;BME280;14780;48.316;-1.050;2023-03-20T06:08:03;99479.09;;;22.89;37.94
18569;BME280;14780;48.316;-1.050;2023-03-20T06:10:50;99470.97;;;22.94;37.99
18569;BME280;14780;48.316;-1.050;2023-03-20T06:13:34;99478.09;;;22.95;38.00
18569;BME280;14780;48.316;-1.050;2023-03-20T06:16:19;99479.22;;;22.99;37.92
18569;BME280;14780;48.316;-1.050;2023-03-20T06:19:04;99477.63;;;23.03;37.90
18569;BME280;14780;48.316;-1.050;2023-03-20T06:21:50;99470.00;;;23.05;38.04
18569;BME280;14780;48.316;-1.050;2023-03-20T06:24:35;99471.13;;;23.09;38.08
18569;BME280;14780;48.316;-1.050;2023-03-20T06:27:20;99480.97;;;23.10;38.07
18569;BME280;14780;48.316;-1.050;2023-03-20T06:30:05;99473.34;;;23.12;38.02
18569;BME280;14780;48.316;-1.050;2023-03-20T06:32:50;99481.28;;;23.13;37.99
18569;BME280;14780;48.316;-1.050;2023-03-20T06:35:35;99489.81;;;23.17;38.05
18569;BME280;14780;48.316;-1.050;2023-03-20T06:38:20;99487.06;;;23.17;37.95
18569;BME280;14780;48.316;-1.050;2023-03-20T06:41:05;99486.00;;;23.18;37.95
18569;BME280;14780;48.316;-1.050;2023-03-20T06:43:50;99486.00;;;23.18;37.92
18569;BME280;14780;48.316;-1.050;2023-03-20T06:46:34;99486.81;;;23.18;37.78
18569;BME280;14780;48.316;-1.050;2023-03-20T06:49:19;99492.53;;;23.17;37.99
18569;BME280;14780;48.316;-1.050;2023-03-20T06:52:04;99494.19;;;23.18;37.89
18569;BME280;14780;48.316;-1.050;2023-03-20T06:54:49;99501.28;;;23.19;37.90
18569;BME280;14780;48.316;-1.050;2023-03-20T06:57:35;99499.38;;;23.19;37.89
18569;BME280;14780;48.316;-1.050;2023-03-20T07:00:20;99501.59;;;23.22;38.06
18569;BME280;14780;48.316;-1.050;2023-03-20T07:03:06;99498.91;;;23.27;37.84
18569;BME280;14780;48.316;-1.050;2023-03-20T07:05:51;99513.44;;;23.33;38.35
18569;BME280;14780;48.316;-1.050;2023-03-20T07:08:36;99514.03;;;23.35;38.17
18569;BME280;14780;48.316;-1.050;2023-03-20T07:11:21;99521.69;;;23.38;38.17
18569;BME280;14780;48.316;-1.050;2023-03-20T07:14:06;99517.88;;;23.38;38.07
18569;BME280;14780;48.316;-1.050;2023-03-20T07:16:51;99517.88;;;23.38;38.12
18569;BME280;14780;48.316;-1.050;2023-03-20T07:19:36;99515.44;;;23.42;38.09
18569;BME280;14780;48.316;-1.050;2023-03-20T07:22:26;99511.38;;;23.44;38.14
18569;BME280;14780;48.316;-1.050;2023-03-20T07:25:11;99515.50;;;23.47;38.13
18569;BME280;14780;48.316;-1.050;2023-03-20T07:27:56;99505.97;;;23.49;38.12
18569;BME280;14780;48.316;-1.050;2023-03-20T07:30:41;99517.44;;;23.51;38.03
18569;BME280;14780;48.316;-1.050;2023-03-20T07:33:26;99519.09;;;23.52;38.05
18569;BME280;14780;48.316;-1.050;2023-03-20T07:36:11;99511.47;;;23.54;38.02
18569;BME280;14780;48.316;-1.050;2023-03-20T07:38:56;99513.38;;;23.54;38.01
18569;BME280;14780;48.316;-1.050;2023-03-20T07:41:40;99518.56;;;23.55;38.09
18569;BME280;14780;48.316;-1.050;2023-03-20T07:44:25;99513.09;;;23.55;38.08
18569;BME280;14780;48.316;-1.050;2023-03-20T07:47:12;99512.59;;;23.58;37.92
18569;BME280;14780;48.316;-1.050;2023-03-20T07:49:57;99521.88;;;23.57;38.02
18569;BME280;14780;48.316;-1.050;2023-03-20T07:52:46;99516.97;;;23.59;38.00
18569;BME280;14780;48.316;-1.050;2023-03-20T07:55:31;99521.34;;;23.60;38.03
18569;BME280;14780;48.316;-1.050;2023-03-20T07:58:16;99526.56;;;23.62;38.01
18569;BME280;14780;48.316;-1.050;2023-03-20T08:01:01;99530.41;;;23.66;37.85
18569;BME280;14780;48.316;-1.050;2023-03-20T08:03:47;99520.84;;;23.63;38.03
18569;BME280;14780;48.316;-1.050;2023-03-20T08:06:32;99522.22;;;23.66;37.87
18569;BME280;14780;48.316;-1.050;2023-03-20T08:09:17;99521.97;;;23.67;37.93
18569;BME280;14780;48.316;-1.050;2023-03-20T08:12:03;99524.69;;;23.67;37.88
18569;BME280;14780;48.316;-1.050;2023-03-20T08:14:48;99522.50;;;23.69;37.81
18569;BME280;14780;48.316;-1.050;2023-03-20T08:17:32;99517.88;;;23.70;37.86
18569;BME280;14780;48.316;-1.050;2023-03-20T08:20:17;99517.88;;;23.70;37.74
18569;BME280;14780;48.316;-1.050;2023-03-20T08:23:03;99529.38;;;23.72;37.70
18569;BME280;14780;48.316;-1.050;2023-03-20T08:25:48;99536.47;;;23.73;37.84
18569;BME280;14780;48.316;-1.050;2023-03-20T08:28:34;99536.22;;;23.74;37.81
18569;BME280;14780;48.316;-1.050;2023-03-20T08:31:19;99542.25;;;23.76;37.57
18569;BME280;14780;48.316;-1.050;2023-03-20T08:34:04;99539.00;;;23.79;37.71
18569;BME280;14780;48.316;-1.050;2023-03-20T08:36:48;99540.09;;;23.78;37.75
18569;BME280;14780;48.316;-1.050;2023-03-20T08:39:34;99545.56;;;23.78;37.76
18569;BME280;14780;48.316;-1.050;2023-03-20T08:42:19;99556.78;;;23.82;37.62
18569;BME280;14780;48.316;-1.050;2023-03-20T08:45:03;99557.59;;;23.82;37.60
18569;BME280;14780;48.316;-1.050;2023-03-20T08:47:48;99558.44;;;23.83;37.65
18569;BME280;14780;48.316;-1.050;2023-03-20T08:50:33;99553.31;;;23.86;37.50
18569;BME280;14780;48.316;-1.050;2023-03-20T08:53:18;99564.72;;;23.83;37.46
18569;BME280;14780;48.316;-1.050;2023-03-20T08:56:03;99557.94;;;23.86;37.39
18569;BME280;14780;48.316;-1.050;2023-03-20T08:58:48;99557.69;;;23.87;37.45
18569;BME280;14780;48.316;-1.050;2023-03-20T09:01:32;99551.97;;;23.89;37.25
18569;BME280;14780;48.316;-1.050;2023-03-20T09:04:17;99563.19;;;23.92;37.40
18569;BME280;14780;48.316;-1.050;2023-03-20T09:07:02;99562.63;;;23.90;37.26
18569;BME280;14780;48.316;-1.050;2023-03-20T09:09:47;99560.97;;;23.89;37.10
18569;BME280;14780;48.316;-1.050;2023-03-20T09:12:32;99568.66;;;23.92;37.17
18569;BME280;14780;48.316;-1.050;2023-03-20T09:15:17;99565.94;;;23.92;37.21
18569;BME280;14780;48.316;-1.050;2023-03-20T09:18:02;99564.84;;;23.93;37.22
18569;BME280;14780;48.316;-1.050;2023-03-20T09:20:47;99566.50;;;23.94;37.23
18569;BME280;14780;48.316;-1.050;2023-03-20T09:23:32;99565.66;;;23.94;37.04
18569;BME280;14780;48.316;-1.050;2023-03-20T09:26:17;99565.66;;;23.94;37.13
18569;BME280;14780;48.316;-1.050;2023-03-20T09:29:02;99567.28;;;23.95;36.96
18569;BME280;14780;48.316;-1.050;2023-03-20T09:31:47;99572.50;;;23.96;37.04
18569;BME280;14780;48.316;-1.050;2023-03-20T09:34:31;99566.78;;;23.98;36.96
18569;BME280;14780;48.316;-1.050;2023-03-20T09:37:16;99566.78;;;23.98;37.05
18569;BME280;14780;48.316;-1.050;2023-03-20T09:40:01;99563.22;;;23.97;36.98
18569;BME280;14780;48.316;-1.050;2023-03-20T09:43:01;99562.19;;;24.03;36.84
18569;BME280;14780;48.316;-1.050;2023-03-20T09:49:01;99561.06;;;23.99;36.78
18569;BME280;14780;48.316;-1.050;2023-03-20T09:52:00;99563.81;;;24.04;36.86
18569;BME280;14780;48.316;-1.050;2023-03-20T09:54:53;99546.03;;;24.02;36.81
18569;BME280;14780;48.316;-1.050;2023-03-20T09:57:52;99552.59;;;24.01;36.83
18569;BME280;14780;48.316;-1.050;2023-03-20T10:00:39;99542.25;;;24.03;36.83
18569;BME280;14780;48.316;-1.050;2023-03-20T10:03:58;99548.31;;;24.10;36.59
18569;BME280;14780;48.316;-1.050;2023-03-20T10:06:45;99545.28;;;24.06;36.80
18569;BME280;14780;48.316;-1.050;2023-03-20T10:09:31;99548.81;;;24.07;36.63
18569;BME280;14780;48.316;-1.050;2023-03-20T10:13:03;99548.59;;;24.13;36.58
18569;BME280;14780;48.316;-1.050;2023-03-20T10:15:57;99550.25;;;24.14;36.43
18569;BME280;14780;48.316;-1.050;2023-03-20T10:18:50;99545.03;;;24.13;36.57
18569;BME280;14780;48.316;-1.050;2023-03-20T10:21:46;99544.78;;;24.14;36.54
18569;BME280;14780;48.316;-1.050;2023-03-20T10:24:36;99549.41;;;24.14;36.53
18569;BME280;14780;48.316;-1.050;2023-03-20T10:27:28;99548.59;;;24.13;36.51
18569;BME280;14780;48.316;-1.050;2023-03-20T10:42:29;99532.81;;;24.25;36.42
18569;BME280;14780;48.316;-1.050;2023-03-20T10:45:36;99523.81;;;24.30;36.32
18569;BME280;14780;48.316;-1.050;2023-03-20T10:48:33;99515.34;;;24.31;36.26
18569;BME280;14780;48.316;-1.050;2023-03-20T10:51:21;99519.72;;;24.32;36.37
18569;BME280;14780;48.316;-1.050;2023-03-20T10:54:23;99524.97;;;24.39;36.41
18569;BME280;14780;48.316;-1.050;2023-03-20T10:57:23;99522.25;;;24.44;36.39
18569;BME280;14780;48.316;-1.050;2023-03-20T11:00:20;99529.09;;;24.46;36.24
18569;BME280;14780;48.316;-1.050;2023-03-20T11:03:08;99517.06;;;24.47;36.43
18569;BME280;14780;48.316;-1.050;2023-03-20T11:06:03;99519.28;;;24.50;36.27
18569;BME280;14780;48.316;-1.050;2023-03-20T11:08:52;99518.75;;;24.53;36.25
18569;BME280;14780;48.316;-1.050;2023-03-20T11:11:38;99520.97;;;24.56;36.20
18569;BME280;14780;48.316;-1.050;2023-03-20T11:14:38;99516.38;;;24.62;36.22
18569;BME280;14780;48.316;-1.050;2023-03-20T11:17:28;99514.44;;;24.62;36.29
18569;BME280;14780;48.316;-1.050;2023-03-20T11:20:13;99509.78;;;24.63;36.28
18569;BME280;14780;48.316;-1.050;2023-03-20T11:23:01;99507.59;;;24.65;36.13
18569;BME280;14780;48.316;-1.050;2023-03-20T11:25:56;99505.41;;;24.67;36.12
18569;BME280;14780;48.316;-1.050;2023-03-20T11:28:54;99506.53;;;24.71;36.22
18569;BME280;14780;48.316;-1.050;2023-03-20T11:31:40;99502.69;;;24.67;35.90
18569;BME280;14780;48.316;-1.050;2023-03-20T11:34:29;99500.53;;;24.69;36.01
18569;BME280;14780;48.316;-1.050;2023-03-20T11:37:28;99495.34;;;24.72;35.95
18569;BME280;14780;48.316;-1.050;2023-03-20T11:43:19;99486.56;;;24.75;35.68
18569;BME280;14780;48.316;-1.050;2023-03-20T11:46:13;99482.50;;;24.78;35.77
18569;BME280;14780;48.316;-1.050;2023-03-20T11:49:21;99482.22;;;24.79;35.71
18569;BME280;14780;48.316;-1.050;2023-03-20T11:52:14;99475.09;;;24.83;35.70
18569;BME280;14780;48.316;-1.050;2023-03-20T11:55:04;99471.84;;;24.86;35.58
18569;BME280;14780;48.316;-1.050;2023-03-20T11:57:51;99480.59;;;24.88;35.72
18569;BME280;14780;48.316;-1.050;2023-03-20T12:00:40;99480.88;;;24.92;35.65
18569;BME280;14780;48.316;-1.050;2023-03-20T12:04:09;99478.47;;;25.00;35.52
18569;BME280;14780;48.316;-1.050;2023-03-20T12:07:29;99485.03;;;25.04;35.62
18569;BME280;14780;48.316;-1.050;2023-03-20T12:10:16;99479.53;;;25.04;35.68
18569;BME280;14780;48.316;-1.050;2023-03-20T12:13:15;99471.88;;;25.06;35.82
18569;BME280;14780;48.316;-1.050;2023-03-20T12:16:12;99468.34;;;25.11;35.67
18569;BME280;14780;48.316;-1.050;2023-03-20T12:19:10;99457.41;;;25.11;35.70
18569;BME280;14780;48.316;-1.050;2023-03-20T12:22:13;99450.81;;;25.12;35.67
18569;BME280;14780;48.316;-1.050;2023-03-20T12:25:21;99451.63;;;25.12;35.74
18569;BME280;14780;48.316;-1.050;2023-03-20T12:28:17;99450.53;;;25.08;35.66
18569;BME280;14780;48.316;-1.050;2023-03-20T12:36:41;99436.28;;;25.06;35.75
18569;BME280;14780;48.316;-1.050;2023-03-20T12:39:38;99431.91;;;25.05;35.75
18569;BME280;14780;48.316;-1.050;2023-03-20T12:45:46;99426.44;;;25.05;35.72
18569;BME280;14780;48.316;-1.050;2023-03-20T12:55:05;99401.81;;;25.10;35.39
18569;BME280;14780;48.316;-1.050;2023-03-20T12:58:12;99404.00;;;25.08;35.57
18569;BME280;14780;48.316;-1.050;2023-03-20T13:03:53;99402.34;;;25.07;35.56
18569;BME280;14780;48.316;-1.050;2023-03-20T13:07:00;99401.25;;;25.13;35.34
18569;BME280;14780;48.316;-1.050;2023-03-20T13:12:48;99399.59;;;25.12;35.42
18569;BME280;14780;48.316;-1.050;2023-03-20T13:16:21;99395.75;;;25.13;35.32
18569;BME280;14780;48.316;-1.050;2023-03-20T13:22:12;99385.94;;;25.07;35.28
18569;BME280;14780;48.316;-1.050;2023-03-20T13:28:08;99372.78;;;25.09;35.38
18569;BME280;14780;48.316;-1.050;2023-03-20T13:34:38;99357.44;;;25.13;35.15
18569;BME280;14780;48.316;-1.050;2023-03-20T13:37:50;99358.53;;;25.17;35.16
18569;BME280;14780;48.316;-1.050;2023-03-20T13:40:41;99346.47;;;25.13;35.20
18569;BME280;14780;48.316;-1.050;2023-03-20T13:43:42;99351.94;;;25.13;35.11
18569;BME280;14780;48.316;-1.050;2023-03-20T13:46:52;99345.09;;;25.16;34.98
18569;BME280;14780;48.316;-1.050;2023-03-20T13:52:56;99338.25;;;25.13;35.15
18569;BME280;14780;48.316;-1.050;2023-03-20T14:04:50;99335.25;;;25.15;35.13
18569;BME280;14780;48.316;-1.050;2023-03-20T14:07:38;99333.88;;;25.12;35.16
18569;BME280;14780;48.316;-1.050;2023-03-20T14:13:17;99337.47;;;25.18;35.06
18569;BME280;14780;48.316;-1.050;2023-03-20T14:16:07;99333.88;;;25.17;35.09
18569;BME280;14780;48.316;-1.050;2023-03-20T14:21:58;99336.63;;;25.17;34.92
18569;BME280;14780;48.316;-1.050;2023-03-20T14:24:59;99328.16;;;25.19;34.90
18569;BME280;14780;48.316;-1.050;2023-03-20T14:27:58;99326.78;;;25.21;35.09
18569;BME280;14780;48.316;-1.050;2023-03-20T14:30:45;99324.31;;;25.20;35.09
18569;BME280;14780;48.316;-1.050;2023-03-20T14:33:30;99329.78;;;25.20;35.06
18569;BME280;14780;48.316;-1.050;2023-03-20T14:36:29;99334.47;;;25.24;34.95
18569;BME280;14780;48.316;-1.050;2023-03-20T14:42:38;99327.59;;;25.22;34.90
18569;BME280;14780;48.316;-1.050;2023-03-20T14:48:40;99319.94;;;25.24;34.92
18569;BME280;14780;48.316;-1.050;2023-03-20T14:51:44;99316.38;;;25.28;34.74
18569;BME280;14780;48.316;-1.050;2023-03-20T14:54:30;99310.63;;;25.25;34.99
18569;BME280;14780;48.316;-1.050;2023-03-20T14:57:40;99316.41;;;25.23;35.05
18569;BME280;14780;48.316;-1.050;2023-03-20T15:00:26;99314.16;;;25.20;34.91
18569;BME280;14780;48.316;-1.050;2023-03-20T15:03:15;99311.16;;;25.17;34.76
18569;BME280;14780;48.316;-1.050;2023-03-20T15:06:05;99310.34;;;25.11;34.81
18569;BME280;14780;48.316;-1.050;2023-03-20T15:09:06;99308.72;;;25.10;34.83
18569;BME280;14780;48.316;-1.050;2023-03-20T15:11:52;99296.38;;;25.08;34.70
18569;BME280;14780;48.316;-1.050;2023-03-20T15:14:44;99304.31;;;25.04;34.79
18569;BME280;14780;48.316;-1.050;2023-03-20T15:17:44;99295.00;;;25.05;34.63
18569;BME280;14780;48.316;-1.050;2023-03-20T15:20:30;99292.28;;;25.00;34.61
18569;BME280;14780;48.316;-1.050;2023-03-20T15:23:15;99288.72;;;24.95;34.65
18569;BME280;14780;48.316;-1.050;2023-03-20T15:26:00;99290.09;;;24.92;34.45
18569;BME280;14780;48.316;-1.050;2023-03-20T15:28:46;99288.16;;;24.88;34.60
18569;BME280;14780;48.316;-1.050;2023-03-20T15:31:33;99287.91;;;24.84;34.70
18569;BME280;14780;48.316;-1.050;2023-03-20T15:34:21;99292.84;;;24.82;34.41
18569;BME280;14780;48.316;-1.050;2023-03-20T15:37:14;99292.28;;;24.80;34.56
18569;BME280;14780;48.316;-1.050;2023-03-20T15:40:16;99294.50;;;24.78;34.60
18569;BME280;14780;48.316;-1.050;2023-03-20T15:43:23;99292.03;;;24.77;34.65
18569;BME280;14780;48.316;-1.050;2023-03-20T15:46:09;99278.59;;;24.70;34.56
18569;BME280;14780;48.316;-1.050;2023-03-20T15:48:53;99278.88;;;24.69;34.39
18569;BME280;14780;48.316;-1.050;2023-03-20T15:51:39;99267.66;;;24.65;34.43
18569;BME280;14780;48.316;-1.050;2023-03-20T15:54:24;99269.81;;;24.63;34.61
18569;BME280;14780;48.316;-1.050;2023-03-20T15:57:17;99268.19;;;24.62;34.44
18569;BME280;14780;48.316;-1.050;2023-03-20T16:00:05;99265.75;;;24.61;34.45
18569;BME280;14780;48.316;-1.050;2023-03-20T16:02:51;99262.44;;;24.59;34.55
18569;BME280;14780;48.316;-1.050;2023-03-20T16:05:36;99265.19;;;24.59;34.45
18569;BME280;14780;48.316;-1.050;2023-03-20T16:08:28;99267.09;;;24.58;34.61
18569;BME280;14780;48.316;-1.050;2023-03-20T16:11:15;99261.34;;;24.55;34.64
18569;BME280;14780;48.316;-1.050;2023-03-20T16:14:00;99250.66;;;24.53;34.54
18569;BME280;14780;48.316;-1.050;2023-03-20T16:16:48;99259.97;;;24.52;34.45
18569;BME280;14780;48.316;-1.050;2023-03-20T16:19:33;99265.44;;;24.52;34.58
18569;BME280;14780;48.316;-1.050;2023-03-20T16:22:29;99258.59;;;24.50;34.63
18569;BME280;14780;48.316;-1.050;2023-03-20T16:25:16;99256.09;;;24.48;34.63
18569;BME280;14780;48.316;-1.050;2023-03-20T16:28:03;99254.47;;;24.47;34.61
18569;BME280;14780;48.316;-1.050;2023-03-20T16:30:52;99250.94;;;24.47;34.45
18569;BME280;14780;48.316;-1.050;2023-03-20T16:33:39;99241.88;;;24.46;34.51